Friday, October 31, 2014
11:24 UTC
  |  Log In   |  Register Free
Airport Search:

Powell Municipal Airport
(KPOY)

Powell Municipal Airport Diagram
No Airport Diagram Available

FAA data valid effective September 18, 2014 - November 13, 2014 (unless otherwise noted).

 
 
 
 
 
 
 
 
 
 
 
 
 
 

Current Aviation Weather for Powell Municipal Airport (KPOY)

The most recent METAR observation for KPOY was updated at: 1112
METAR Summary (Translated METAR)
KPOY
311055Z AUTO 13010KT 10SM CLR 05/M05 A3008 RMK AO2
KU68
311055Z AUTO 00000KT 10SM CLR 05/M05 A3010 RMK AO2 PWINO
(15 nm NE from KPOY)
KCOD
311055Z 19011KT 10SM CLR 07/M02 A3009 RMK AO1
(23.1 nm SW from KPOY)
TAF Summary (Translated TAF)
KCOD
310523Z 3106/0106 18006KT P6SM SCT130 FM311800 14007KT P6SM SCT130 FM010200 20006KT P6SM SCT130 AMD LTD TO CLD VIS AND WIND
  Airport Weather Conditions for KPOY

 Current Weather at POY
41° F
Fair
Southeast winds at 10.4 mph
POY NOAA Radar

Pressure: 30.10 in
Humidity: 49%
Wind: Southeast at 10.4 MPH (9 KT)
Dew Point: 23.0°F
Visibility: 10.00 mi


Airport Weather Forecast for KPOY

Translated METAR and TAF for KCOD
Translated METAR for KCOD (1119 UTC 31 October 2014)
found at http://aviationweather.gov/adds/metars/
 
METAR text: KCOD 311115Z 00000KT 10SM CLR 06/M02 A3009 RMK AO1
Conditions at: KCOD (CODY , WY, US) observed 1115 UTC 31 October 2014
Temperature: 6.0°C (43°F)
Dewpoint: -2.0°C (28°F) [RH = 56%]
Pressure (altimeter): 30.09 inches Hg (1019.0 mb)
Winds: calm
Visibility: 10 or more miles (16+ km)
Ceiling: at least 12,000 feet AGL
Clouds: sky clear below 12,000 feet AGL
Weather: no significant weather observed at this time
Translated TAF for KCOD
Forecast for: KCOD (CODY , WY, US)
TAF Text: KCOD 310523Z 3106/0106 18006KT P6SM SCT130
Forecast period: 0600 to 1800 UTC 31 October 2014
Forecast type: FROM: standard forecast or significant change
Winds: from the S (180 degrees) at 7 MPH (6 knots; 3.1 m/s)
Visibility: 6 or more miles (10+ km)
Clouds: scattered clouds at 13000 feet AGL
Weather: no significant weather forecast for this period
TAF Text: FM311800 14007KT P6SM SCT130
Forecast period: 1800 UTC 31 October 2014 to 0200 UTC 01 November 2014
Forecast type: FROM: standard forecast or significant change
Winds: from the SE (140 degrees) at 8 MPH (7 knots; 3.6 m/s)
Visibility: 6 or more miles (10+ km)
Clouds: scattered clouds at 13000 feet AGL
Weather: no significant weather forecast for this period
TAF Text: FM010200 20006KT P6SM SCT130 AMD LTD TO CLD VIS AND WIND
Forecast period: 0200 to 0600 UTC 01 November 2014
Forecast type: FROM: standard forecast or significant change
Winds: from the SSW (200 degrees) at 7 MPH (6 knots; 3.1 m/s)
Visibility: 6 or more miles (10+ km)
Clouds: scattered clouds at 13000 feet AGL
Weather: no significant weather forecast for this period

Find All Airport Services Find A Hotel Find A Rental Car Find A Golf Course Find A Restaurant $100 Hamburger



FBO's on the Field
FBO Company Facility Photos Services Transportation Aviation Fuel Prices: Prices include tax
Catering Weather Repair Courtesy Rental Type 100LL JetA JetA+ MOGAS 8087
 
City of Powell

This FBO has not yet been rated
FS:Independent
Last Updated: Oct-03
Login to update fuel prices
SS:
Contact City of PowellMore FBO Information
 
Add another FBO Facility Photos Catering Weather Repair Courtesy Rental Type 100LL JetA JetA+ MOGAS 8087
Services Transportation Aviation Fuel Prices: Prices include tax


model-print
model-print
model-print
model-print